Time;durP1;ratioP1;P1;durP2;ratioP2;P2;SDS_P1;SDS_P2;PMS_P1;PMS_P2;Temp;Humidity;BMP_temperature;BMP_pressure;BME280_temperature;BME280_humidity;BME280_pressure;Samples;Min_cycle;Max_cycle;Signal;HPM_P1;HPM_P2
2022/09/20 00:00:40;;;;;;;6.70;4.62;;;;;;;8.58;100.00;97784.70;1726784;83;21240;-87
2022/09/20 00:03:08;;;;;;;;;;;;;;;8.63;100.00;97793.32;1728863;83;20997;-88
2022/09/20 00:05:36;;;;;;;5.65;3.35;;;;;;;8.65;100.00;97791.18;1726676;83;20185;-85
2022/09/20 00:08:04;;;;;;;8.03;4.85;;;;;;;8.67;100.00;97798.47;1726520;83;21505;-88
2022/09/20 00:10:30;;;;;;;8.30;5.87;;;;;;;8.69;100.00;97792.24;1726912;83;21096;-88
2022/09/20 00:12:56;;;;;;;9.30;5.87;;;;;;;8.73;100.00;97790.09;1697600;83;21048;-85
2022/09/20 00:15:22;;;;;;;8.40;5.30;;;;;;;8.85;100.00;97800.59;1697826;83;20941;-85
2022/09/20 00:17:48;;;;;;;7.47;4.33;;;;;;;8.86;100.00;97800.05;1726682;81;21690;-85
2022/09/20 00:20:14;;;;;;;6.55;4.72;;;;;;;8.88;100.00;97802.73;1726699;83;20882;-84
2022/09/20 00:22:40;;;;;;;6.33;5.05;;;;;;;8.90;100.00;97807.89;1726787;83;21148;-87
2022/09/20 00:25:07;;;;;;;6.37;4.37;;;;;;;8.88;100.00;97805.44;1726932;83;21324;-87
2022/09/20 00:27:33;;;;;;;6.97;5.05;;;;;;;8.87;100.00;97809.77;1726882;83;21571;-85
2022/09/20 00:29:59;;;;;;;9.80;5.17;;;;;;;8.83;100.00;97800.60;1727001;83;20967;-87
2022/09/20 00:32:25;;;;;;;8.08;5.17;;;;;;;8.83;100.00;97810.06;1726908;82;20904;-85
2022/09/20 00:37:41;;;;;;;6.70;4.95;;;;;;;8.86;100.00;97809.50;1726916;83;22115;-88
2022/09/20 00:40:15;;;;;;;7.65;5.83;;;;;;;8.87;100.00;97809.22;1726888;83;21039;-88
2022/09/20 00:42:41;;;;;;;7.37;5.67;;;;;;;8.86;100.00;97806.80;1726250;81;21470;-88
2022/09/20 00:45:27;;;;;;;9.93;6.08;;;;;;;8.88;100.00;97811.38;1727020;83;21849;-84
2022/09/20 00:48:07;;;;;;;9.80;6.33;;;;;;;8.88;100.00;97810.84;1697753;83;21070;-88
2022/09/20 00:50:46;;;;;;;9.85;6.15;;;;;;;8.89;100.00;97813.03;1726394;83;21306;-85
2022/09/20 00:53:33;;;;;;;12.18;7.20;;;;;;;8.92;100.00;97811.13;1726666;82;21018;-85
2022/09/20 00:56:03;;;;;;;13.58;6.40;;;;;;;8.94;100.00;97813.00;1726784;83;21083;-84
2022/09/20 00:58:31;;;;;;;11.15;5.87;;;;;;;8.93;100.00;97814.89;1723341;83;21480;-88
2022/09/20 01:00:57;;;;;;;7.47;5.40;;;;;;;8.92;100.00;97807.06;1727383;83;20999;-88
2022/09/20 01:03:26;;;;;;;8.15;5.22;;;;;;;8.91;100.00;97813.02;1727007;83;22004;-88
2022/09/20 01:05:53;;;;;;;;;;;;;;;8.92;100.00;97805.72;1729642;83;21019;-88
2022/09/20 01:08:19;;;;;;;7.78;5.10;;;;;;;8.91;100.00;97806.80;1726854;83;20227;-85
2022/09/20 01:10:45;;;;;;;7.28;5.10;;;;;;;8.92;100.00;97808.42;1727239;83;20998;-85
2022/09/20 01:13:11;;;;;;;8.45;5.40;;;;;;;8.92;100.00;97803.02;1726711;83;21015;-85
2022/09/20 01:15:37;;;;;;;9.18;6.03;;;;;;;8.93;100.00;97800.58;1727165;83;21322;-88
2022/09/20 01:18:03;;;;;;;10.28;6.05;;;;;;;8.92;100.00;97801.66;1726647;83;21361;-85
2022/09/20 01:20:32;;;;;;;7.40;4.78;;;;;;;8.88;100.00;97800.03;1727173;83;20968;-86
2022/09/20 01:23:12;;;;;;;9.75;5.92;;;;;;;8.91;100.00;97805.45;1726248;83;21008;-85
2022/09/20 01:25:52;;;;;;;7.47;5.03;;;;;;;8.86;100.00;97798.70;1725506;83;21015;-88
2022/09/20 01:28:18;;;;;;;10.00;5.10;;;;;;;8.87;100.00;97798.95;1725332;83;22001;-87
2022/09/20 01:30:55;;;;;;;9.10;5.55;;;;;;;8.88;100.00;97797.87;1725408;83;21021;-87
2022/09/20 01:33:32;;;;;;;9.58;5.78;;;;;;;8.89;100.00;97803.57;1725175;83;21491;-85
2022/09/20 01:36:00;;;;;;;10.68;6.17;;;;;;;8.88;100.00;97800.58;1716800;83;21089;-84
2022/09/20 01:38:43;;;;;;;11.50;6.45;;;;;;;8.87;100.00;97803.82;1725207;83;21484;-87
2022/09/20 01:41:17;;;;;;;8.13;6.17;;;;;;;8.89;100.00;97800.33;1725417;83;22184;-87
2022/09/20 01:44:14;;;;;;;8.33;5.97;;;;;;;8.90;100.00;97798.44;1724144;83;20996;-87
2022/09/20 01:46:41;;;;;;;9.15;6.28;;;;;;;8.91;100.00;97798.70;1725004;83;21011;-88
2022/09/20 01:49:18;;;;;;;7.92;5.75;;;;;;;8.90;100.00;97798.44;1723681;83;21005;-86
2022/09/20 01:52:11;;;;;;;8.58;5.92;;;;;;;8.88;100.00;97793.81;1719805;83;21036;-85
2022/09/20 01:55:29;;;;;;;8.50;6.03;;;;;;;8.86;100.00;97795.45;1721184;82;21281;-84
2022/09/20 01:58:12;;;;;;;8.70;6.75;;;;;;;8.87;100.00;97797.61;1721186;83;21076;-88
2022/09/20 02:00:53;;;;;;;9.68;6.60;;;;;;;8.90;100.00;97798.44;1721635;82;21085;-88
2022/09/20 02:04:07;;;;;;;29.12;16.48;;;;;;;8.91;100.00;97806.80;1721166;83;21022;-85
2022/09/20 02:06:59;;;;;;;14.28;9.40;;;;;;;8.93;100.00;97805.44;1674447;85;21500;-85
2022/09/20 02:09:52;;;;;;;12.98;9.20;;;;;;;8.92;100.00;97807.88;1721123;83;21168;-88
2022/09/20 02:12:50;;;;;;;12.60;8.05;;;;;;;8.93;100.00;97807.33;1721132;83;21076;-88
2022/09/20 02:15:46;;;;;;;14.65;8.65;;;;;;;8.95;100.00;97810.56;1721089;83;21077;-84
2022/09/20 02:18:32;;;;;;;14.75;9.33;;;;;;;8.95;100.00;97814.07;1721175;83;21076;-88
2022/09/20 02:21:04;;;;;;;13.00;9.10;;;;;;;8.93;100.00;97813.55;1721654;83;21072;-87
2022/09/20 02:23:51;;;;;;;15.15;9.35;;;;;;;8.93;100.00;97812.73;1696653;83;21585;-88
2022/09/20 02:26:26;;;;;;;11.43;7.83;;;;;;;8.96;100.00;97814.34;1744981;82;21003;-88
2022/09/20 02:29:30;;;;;;;10.63;7.97;;;;;;;8.98;100.00;97816.79;1781680;80;20980;-84
2022/09/20 02:32:05;;;;;;;11.83;8.03;;;;;;;8.98;100.00;97812.20;1734144;82;21038;-84
2022/09/20 02:34:58;;;;;;;12.68;7.58;;;;;;;8.96;100.00;97815.69;1744499;82;21062;-84
2022/09/20 02:37:51;;;;;;;21.97;11.35;;;;;;;8.96;100.00;97824.34;1768541;80;21144;-84
2022/09/20 02:40:31;;;;;;;14.23;8.75;;;;;;;8.95;100.00;97814.07;1748288;80;21004;-88
2022/09/20 02:43:08;;;;;;;11.88;7.20;;;;;;;8.98;100.00;97820.84;1782275;80;21481;-88
2022/09/20 02:45:49;;;;;;;11.90;7.53;;;;;;;8.97;100.00;97828.14;1782518;80;20989;-86
2022/09/20 02:48:15;;;;;;;9.38;7.83;;;;;;;8.99;100.00;97827.86;1782115;80;21001;-85
2022/09/20 02:51:11;;;;;;;11.03;7.20;;;;;;;9.02;100.00;97827.30;1721056;82;21684;-85
2022/09/20 02:54:12;;;;;;;9.15;6.85;;;;;;;9.04;100.00;97828.64;1748221;82;21044;-88
2022/09/20 02:57:00;;;;;;;9.35;6.42;;;;;;;9.08;100.00;97832.17;1750884;81;21055;-87
2022/09/20 02:59:34;;;;;;;7.37;5.53;;;;;;;9.07;100.00;97834.06;1749779;81;20976;-86
2022/09/20 03:02:36;;;;;;;9.05;6.75;;;;;;;9.07;100.00;97831.91;1749527;82;21511;-85
2022/09/20 03:05:20;;;;;;;7.78;6.12;;;;;;;9.08;100.00;97831.63;1749737;81;21211;-85
2022/09/20 03:08:12;;;;;;;8.30;5.55;;;;;;;9.13;100.00;97834.84;1749621;82;21047;-88
2022/09/20 03:10:44;;;;;;;7.90;5.37;;;;;;;9.13;100.00;97834.84;1749996;81;21048;-87
2022/09/20 03:13:32;;;;;;;9.33;5.22;;;;;;;9.11;100.00;97837.02;1749807;82;21004;-87
2022/09/20 03:16:12;;;;;;;8.97;5.80;;;;;;;9.12;100.00;97837.28;1750273;81;20956;-84
2022/09/20 03:19:11;;;;;;;6.65;5.40;;;;;;;9.13;100.00;97839.70;1725582;82;21587;-87
2022/09/20 03:21:52;;;;;;;8.58;5.30;;;;;;;9.14;100.00;97837.27;1749226;82;21071;-84
2022/09/20 03:24:29;;;;;;;6.30;4.62;;;;;;;9.17;100.00;97844.03;1782265;80;20980;-87
2022/09/20 03:27:06;;;;;;;7.83;4.95;;;;;;;9.17;100.00;97842.69;1782034;80;21008;-84
2022/09/20 03:30:14;;;;;;;7.97;4.55;;;;;;;9.18;100.00;97845.11;1779427;80;21488;-88
2022/09/20 03:32:49;;;;;;;8.03;4.87;;;;;;;9.19;100.00;97845.91;1781773;80;21059;-85
2022/09/20 03:35:52;;;;;;;7.92;5.20;;;;;;;9.21;100.00;97843.20;1782245;80;20993;-88
2022/09/20 03:38:45;;;;;;;9.50;5.87;;;;;;;9.21;100.00;97854.01;1782200;80;21000;-85
2022/09/20 03:41:38;;;;;;;7.47;5.40;;;;;;;9.18;100.00;97849.16;1782645;80;20996;-87
2022/09/20 03:44:15;;;;;;;8.83;6.50;;;;;;;9.18;100.00;97849.70;1782276;80;21071;-88
2022/09/20 03:46:46;;;;;;;7.12;5.17;;;;;;;9.18;100.00;97851.86;1778678;80;21626;-87
2022/09/20 03:49:46;;;;;;;8.20;6.47;;;;;;;9.20;100.00;97856.99;1778925;80;21009;-84
2022/09/20 03:52:42;;;;;;;10.58;7.20;;;;;;;9.14;100.00;97850.78;1773905;80;21025;-85
2022/09/20 03:55:37;;;;;;;10.90;7.78;;;;;;;9.16;100.00;97858.09;1760764;80;20989;-86
2022/09/20 03:58:44;;;;;;;10.60;7.58;;;;;;;9.17;100.00;97855.66;1773945;80;21017;-87
2022/09/20 04:01:38;;;;;;;10.90;7.90;;;;;;;9.19;100.00;97859.44;1721976;83;21321;-85
2022/09/20 04:04:24;;;;;;;11.38;8.65;;;;;;;9.17;100.00;97859.72;1773813;80;21012;-85
2022/09/20 04:07:22;;;;;;;10.58;8.25;;;;;;;9.15;100.00;97862.43;1774051;80;21540;-88
2022/09/20 04:10:17;;;;;;;10.60;7.42;;;;;;;9.13;100.00;97864.03;1774052;80;21041;-85
2022/09/20 04:13:05;;;;;;;11.75;8.10;;;;;;;9.11;100.00;97867.55;1772907;80;21033;-87
2022/09/20 04:15:43;;;;;;;9.90;7.13;;;;;;;9.10;100.00;97872.70;1772711;80;21350;-87
2022/09/20 04:18:37;;;;;;;9.78;8.20;;;;;;;9.07;100.00;97880.02;1771882;80;21016;-84
2022/09/20 04:21:08;;;;;;;11.05;8.25;;;;;;;9.03;100.00;97869.46;1774076;80;20994;-85
2022/09/20 04:24:01;;;;;;;9.38;6.83;;;;;;;9.07;100.00;97884.07;1779837;80;21040;-87
2022/09/20 04:26:30;;;;;;;11.05;7.58;;;;;;;9.03;100.00;97882.44;1782560;80;21087;-85
2022/09/20 04:29:15;;;;;;;10.58;8.70;;;;;;;9.03;100.00;97882.44;1782371;80;22070;-84
2022/09/20 04:32:12;;;;;;;12.03;7.87;;;;;;;9.00;100.00;97891.64;1714474;82;21065;-87
2022/09/20 04:37:35;;;;;;;12.95;8.35;;;;;;;8.92;100.00;97895.70;1782154;80;21425;-85
2022/09/20 04:40:26;;;;;;;;;;;;;;;8.91;100.00;97899.48;1784635;80;21444;-88
2022/09/20 04:43:23;;;;;;;17.05;11.57;;;;;;;8.91;100.00;97902.19;1782186;78;21332;-88
2022/09/20 04:45:55;;;;;;;25.37;13.78;;;;;;;8.91;100.00;97896.78;1782045;80;20949;-85
2022/09/20 04:49:14;;;;;;;27.75;15.58;;;;;;;8.90;100.00;97895.17;1781518;80;21068;-85
2022/09/20 04:52:03;;;;;;;41.60;22.95;;;;;;;8.89;100.00;97898.15;1774108;80;21016;-86
2022/09/20 04:54:52;;;;;;;18.98;11.75;;;;;;;8.90;100.00;97897.06;1773806;80;21504;-85
2022/09/20 04:58:04;;;;;;;18.92;10.48;;;;;;;8.87;100.00;97898.94;1771003;80;21045;-85
2022/09/20 05:01:10;;;;;;;13.93;8.50;;;;;;;8.89;100.00;97898.95;1778764;79;20997;-87
2022/09/20 05:04:01;;;;;;;10.70;7.53;;;;;;;8.95;100.00;97902.45;1714219;80;20993;-87
2022/09/20 05:06:44;;;;;;;11.18;7.40;;;;;;;8.92;100.00;97893.54;1770106;80;21064;-87
2022/09/20 05:09:43;;;;;;;9.88;7.97;;;;;;;9.01;100.00;97900.02;1765939;80;21177;-87
2022/09/20 05:12:53;;;;;;;11.05;8.25;;;;;;;9.03;100.00;97902.70;1764059;80;21143;-84
2022/09/20 05:16:02;;;;;;;12.58;7.35;;;;;;;9.05;100.00;97911.34;1768160;81;21036;-87
2022/09/20 05:18:51;;;;;;;20.25;15.23;;;;;;;9.04;100.00;97908.38;1784434;79;21075;-86
2022/09/20 05:22:16;;;;;;;17.25;12.98;;;;;;;9.07;100.00;97906.23;1775333;80;21048;-85
2022/09/20 05:25:11;;;;;;;13.20;10.43;;;;;;;9.09;100.00;97906.22;1782320;80;21000;-88
2022/09/20 05:28:02;;;;;;;15.30;11.15;;;;;;;9.18;100.00;97915.94;1733548;80;21194;-85
2022/09/20 05:30:49;;;;;;;27.65;18.35;;;;;;;9.24;100.00;97910.80;1782118;80;20997;-85
2022/09/20 05:33:42;;;;;;;15.08;9.88;;;;;;;9.28;100.00;97918.08;1782400;79;21047;-86
2022/09/20 05:36:32;;;;;;;18.62;12.95;;;;;;;9.28;100.00;97918.63;1792849;79;21044;-87
2022/09/20 05:39:29;;;;;;;34.23;22.48;;;;;;;9.30;100.00;97917.25;1786600;79;21110;-87
2022/09/20 05:42:12;;;;;;;105.20;67.70;;;;;;;9.33;100.00;97922.68;1779326;79;21589;-87
2022/09/20 05:45:27;;;;;;;83.97;54.58;;;;;;;9.33;100.00;97927.55;1780087;79;20979;-87
2022/09/20 05:48:10;;;;;;;33.88;26.02;;;;;;;9.36;100.00;97924.02;1778880;79;21066;-85
2022/09/20 05:51:05;;;;;;;25.55;18.00;;;;;;;9.39;100.00;97923.45;1780453;79;21069;-88
2022/09/20 05:53:54;;;;;;;24.30;19.00;;;;;;;9.42;100.00;97925.64;1777030;79;21504;-87
2022/09/20 05:56:41;;;;;;;32.30;21.75;;;;;;;9.41;100.00;97930.23;1784444;79;21111;-85
2022/09/20 05:59:44;;;;;;;36.53;25.08;;;;;;;9.44;100.00;97928.33;1765460;79;21029;-87
2022/09/20 06:02:50;;;;;;;19.32;14.25;;;;;;;9.50;100.00;97931.84;1782351;79;21440;-85
2022/09/20 06:05:33;;;;;;;39.92;23.98;;;;;;;9.54;100.00;97933.70;1709887;79;21048;-85
2022/09/20 06:08:11;;;;;;;33.80;20.85;;;;;;;9.57;100.00;97930.98;1783603;79;21092;-84
2022/09/20 06:11:16;;;;;;;27.95;17.75;;;;;;;9.57;100.00;97931.82;1779121;79;21680;-87
2022/09/20 06:14:08;;;;;;;27.60;16.93;;;;;;;9.61;100.00;97931.52;1779700;79;21015;-85
2022/09/20 06:16:59;;;;;;;26.95;16.95;;;;;;;9.68;100.00;97933.94;1778976;79;21011;-85
2022/09/20 06:20:05;;;;;;;18.20;13.83;;;;;;;9.74;100.00;97930.66;1781382;79;21020;-87
2022/09/20 06:22:37;;;;;;;53.85;33.08;;;;;;;9.70;100.00;97935.83;1782421;79;20972;-87
2022/09/20 06:25:14;;;;;;;68.72;39.53;;;;;;;9.75;100.00;97939.07;1754677;79;21087;-85
2022/09/20 06:27:51;;;;;;;30.70;20.25;;;;;;;9.80;100.00;97945.25;1783877;79;21023;-88
2022/09/20 06:30:21;;;;;;;284.07;123.42;;;;;;;9.82;100.00;97942.27;1777857;78;21018;-84
2022/09/20 06:33:06;;;;;;;110.28;57.80;;;;;;;9.84;100.00;97949.05;1773454;79;21032;-84
2022/09/20 06:35:42;;;;;;;240.45;96.63;;;;;;;9.87;100.00;97944.96;1774864;79;21063;-88
2022/09/20 06:41:29;;;;;;;25.90;15.63;;;;;;;9.86;100.00;97940.09;1793081;78;21484;-88
2022/09/20 06:44:00;;;;;;;42.78;32.63;;;;;;;9.92;100.00;97948.20;1785965;79;21283;-88
2022/09/20 06:46:29;;;;;;;15.63;13.30;;;;;;;9.88;100.00;97937.11;1779531;79;21541;-88
2022/09/20 06:48:55;;;;;;;11.90;8.25;;;;;;;9.86;100.00;97950.11;1776642;79;21406;-88
2022/09/20 06:51:22;;;;;;;65.08;35.50;;;;;;;9.88;100.00;97946.58;1792038;79;21097;-85
2022/09/20 06:53:48;;;;;;;22.60;17.45;;;;;;;9.93;100.00;97951.18;1751119;79;21055;-85
2022/09/20 06:56:18;;;;;;;11.35;9.00;;;;;;;9.94;100.00;97950.09;1795593;78;20937;-85
2022/09/20 06:58:44;;;;;;;25.90;20.48;;;;;;;9.88;100.00;97958.76;1788631;78;21412;-88
2022/09/20 07:01:12;;;;;;;16.32;13.40;;;;;;;9.84;100.00;97957.16;1778860;79;20976;-86
2022/09/20 07:03:39;;;;;;;10.72;7.95;;;;;;;9.87;100.00;97966.07;1776772;80;21878;-87
2022/09/20 07:06:05;;;;;;;23.85;16.85;;;;;;;9.90;100.00;97961.99;1773359;80;21079;-87
2022/09/20 07:08:31;;;;;;;294.07;137.90;;;;;;;9.91;100.00;97964.96;1779445;79;20965;-85
2022/09/20 07:11:04;;;;;;;36.58;25.15;;;;;;;9.95;100.00;97970.66;1779050;79;20866;-85
2022/09/20 07:13:29;;;;;;;864.15;434.40;;;;;;;9.95;100.00;97972.00;1778444;79;21064;-85
2022/09/20 07:16:03;;;;;;;88.90;51.25;;;;;;;9.93;100.00;97975.00;1780470;79;20950;-85
2022/09/20 07:18:30;;;;;;;127.00;50.88;;;;;;;9.87;100.00;97976.90;1776802;79;21414;-87
2022/09/20 07:20:59;;;;;;;92.75;38.20;;;;;;;9.85;100.00;97978.27;1777498;79;21081;-88
2022/09/20 07:23:31;;;;;;;;;;;;;;;9.87;100.00;97986.37;1786796;78;21091;-85
2022/09/20 07:25:59;;;;;;;84.60;28.87;;;;;;;9.84;100.00;97985.58;1789149;78;20317;-84
2022/09/20 07:28:27;;;;;;;21.33;13.03;;;;;;;9.85;100.00;97986.39;1792162;78;21307;-87
2022/09/20 07:30:53;;;;;;;69.10;23.57;;;;;;;9.80;100.00;97991.26;1795645;78;21154;-85
2022/09/20 07:33:20;;;;;;;35.85;16.17;;;;;;;9.81;100.00;97996.94;1774316;80;20901;-84
2022/09/20 07:35:49;;;;;;;22.00;12.82;;;;;;;9.93;100.00;98001.25;1788230;78;21059;-85
2022/09/20 07:38:15;;;;;;;19.15;10.85;;;;;;;10.00;100.00;98002.58;1747106;80;21099;-85
2022/09/20 07:40:42;;;;;;;22.80;12.58;;;;;;;10.05;100.00;98000.39;1782259;79;21890;-85
2022/09/20 07:43:08;;;;;;;24.67;13.35;;;;;;;10.07;100.00;98003.62;1754060;79;21031;-85
2022/09/20 07:45:37;;;;;;;26.93;15.10;;;;;;;10.08;100.00;98009.30;1784453;79;20871;-88
2022/09/20 07:48:06;;;;;;;26.15;15.32;;;;;;;10.13;100.00;98010.64;1755822;79;21181;-89
2022/09/20 07:50:32;;;;;;;20.72;11.55;;;;;;;10.09;100.00;98020.42;1774712;79;21125;-88
2022/09/20 07:52:58;;;;;;;17.42;10.75;;;;;;;10.02;100.00;98019.36;1783077;78;21282;-88
2022/09/20 07:55:24;;;;;;;12.58;8.15;;;;;;;9.80;100.00;98017.52;1779786;79;21019;-87
2022/09/20 07:57:50;;;;;;;15.58;8.98;;;;;;;9.82;100.00;98024.27;1783561;78;20895;-85
2022/09/20 08:00:16;;;;;;;15.00;10.15;;;;;;;9.95;100.00;98026.14;1779338;79;20974;-88
2022/09/20 08:02:44;;;;;;;26.75;18.95;;;;;;;10.11;100.00;98027.72;1786005;78;20990;-88
2022/09/20 08:05:10;;;;;;;23.62;16.17;;;;;;;10.29;100.00;98027.67;1768830;79;21027;-89
2022/09/20 08:07:37;;;;;;;13.25;8.13;;;;;;;10.63;100.00;98021.81;1752870;79;21092;-88
2022/09/20 08:10:04;;;;;;;12.93;8.25;;;;;;;10.86;100.00;98030.36;1782673;79;21523;-88
2022/09/20 08:12:31;;;;;;;8.45;5.95;;;;;;;11.08;100.00;98028.02;1780534;79;20995;-88
2022/09/20 08:14:57;;;;;;;8.38;6.22;;;;;;;11.04;100.00;98028.34;1803049;79;21055;-88
2022/09/20 08:17:23;;;;;;;6.25;5.65;;;;;;;11.33;100.00;98024.30;1781086;79;21831;-85
2022/09/20 08:19:51;;;;;;;7.62;5.28;;;;;;;11.45;100.00;98026.11;1780183;79;20876;-88
2022/09/20 08:22:18;;;;;;;7.55;5.70;;;;;;;11.41;99.86;98028.31;1782758;79;21622;-88
2022/09/20 08:24:45;;;;;;;7.97;6.28;;;;;;;11.35;99.62;98030.25;1782729;79;21429;-85
2022/09/20 08:27:12;;;;;;;18.32;12.13;;;;;;;11.40;99.96;98030.77;1771332;79;21063;-88
2022/09/20 08:29:39;;;;;;;9.05;6.37;;;;;;;11.22;97.48;98041.22;1777228;79;22044;-88
2022/09/20 08:32:05;;;;;;;7.17;5.22;;;;;;;11.07;97.66;98033.73;1783804;79;21064;-88
2022/09/20 08:34:31;;;;;;;6.47;5.62;;;;;;;11.02;97.35;98037.28;1790278;79;20988;-89
2022/09/20 08:36:58;;;;;;;13.03;5.85;;;;;;;11.05;97.93;98042.16;1779195;78;21111;-89
2022/09/20 08:39:25;;;;;;;8.68;6.53;;;;;;;11.11;98.84;98040.20;1789094;79;21564;-85
2022/09/20 08:42:02;;;;;;;8.43;6.08;;;;;;;10.95;98.52;98038.97;1783095;78;21111;-85
2022/09/20 08:44:45;;;;;;;8.40;5.70;;;;;;;10.93;98.56;98041.13;1777965;79;21457;-85
2022/09/20 08:47:35;;;;;;;7.12;6.08;;;;;;;10.90;98.78;98043.06;1776551;79;21041;-85
2022/09/20 08:50:06;;;;;;;9.03;6.60;;;;;;;10.86;99.72;98043.92;1781690;79;21068;-85
2022/09/20 08:52:35;;;;;;;10.53;7.42;;;;;;;10.77;100.00;98047.77;1780407;79;20964;-85
2022/09/20 08:55:01;;;;;;;9.08;6.92;;;;;;;10.71;100.00;98051.04;1789664;78;21474;-88
2022/09/20 08:57:30;;;;;;;8.55;6.35;;;;;;;10.55;100.00;98050.84;1746551;80;21032;-85
2022/09/20 09:00:00;;;;;;;10.13;6.50;;;;;;;10.50;100.00;98054.12;1747202;80;21103;-85
2022/09/20 09:02:29;;;;;;;11.35;6.97;;;;;;;10.52;100.00;98051.96;1747451;80;21066;-88
2022/09/20 09:04:55;;;;;;;10.48;8.08;;;;;;;10.55;100.00;98054.91;1719590;80;21052;-85
2022/09/20 09:07:21;;;;;;;8.35;7.22;;;;;;;10.81;100.00;98053.42;1788504;79;21827;-88
2022/09/20 09:09:50;;;;;;;8.23;6.75;;;;;;;11.07;100.00;98050.00;1788010;79;20905;-85
2022/09/20 09:12:26;;;;;;;9.33;7.03;;;;;;;11.32;100.00;98051.72;1778762;79;21112;-85
2022/09/20 09:14:56;;;;;;;7.40;6.50;;;;;;;11.44;100.00;98054.31;1785320;78;21130;-89
2022/09/20 09:17:27;;;;;;;8.08;6.37;;;;;;;11.45;100.00;98045.62;1748716;79;20990;-85
2022/09/20 09:20:00;;;;;;;10.15;6.65;;;;;;;11.66;100.00;98044.37;1750728;79;21465;-85
2022/09/20 09:22:40;;;;;;;9.45;7.25;;;;;;;11.95;100.00;98041.66;1749727;79;21458;-85
2022/09/20 09:25:25;;;;;;;8.98;6.20;;;;;;;12.22;99.57;98032.12;1787221;79;21000;-85
2022/09/20 09:28:02;;;;;;;6.83;5.28;;;;;;;12.33;97.03;98041.23;1757554;79;21034;-85
2022/09/20 09:30:39;;;;;;;23.55;12.23;;;;;;;12.16;97.20;98038.73;1778118;79;22269;-85
2022/09/20 09:33:31;;;;;;;8.85;6.65;;;;;;;12.07;96.14;98042.08;1785100;78;21140;-85
2022/09/20 09:36:07;;;;;;;6.25;5.03;;;;;;;12.25;95.39;98038.35;1787238;79;21012;-89
2022/09/20 09:38:36;;;;;;;11.80;6.33;;;;;;;12.27;94.78;98038.86;1785272;78;21533;-85
2022/09/20 09:41:12;;;;;;;9.08;5.92;;;;;;;12.34;95.19;98042.05;1789527;78;21018;-88
2022/09/20 09:43:39;;;;;;;10.80;7.00;;;;;;;12.18;93.75;98037.89;1785946;79;21536;-89
2022/09/20 09:46:21;;;;;;;22.17;11.60;;;;;;;12.38;95.61;98034.91;1793838;79;21003;-85
2022/09/20 09:49:14;;;;;;;16.25;9.93;;;;;;;12.39;94.75;98036.01;1785021;79;20988;-88
2022/09/20 09:51:45;;;;;;;9.15;5.90;;;;;;;12.26;94.73;98038.06;1783581;78;21015;-89
2022/09/20 09:54:16;;;;;;;7.90;5.58;;;;;;;12.23;94.74;98035.13;1783400;79;20961;-88
2022/09/20 09:56:56;;;;;;;29.70;15.78;;;;;;;12.28;95.58;98030.97;1786571;79;21024;-89
2022/09/20 10:00:05;;;;;;;11.38;6.85;;;;;;;12.27;95.46;98031.52;1785115;78;21162;-87
2022/09/20 10:03:12;;;;;;;10.00;6.72;;;;;;;12.18;95.10;98035.17;1774677;79;21223;-88
2022/09/20 10:06:12;;;;;;;27.67;14.68;;;;;;;12.13;95.24;98031.43;1791390;79;20987;-87
2022/09/20 10:09:13;;;;;;;14.47;9.05;;;;;;;12.10;96.52;98031.98;1783577;79;21357;-88
2022/09/20 10:11:45;;;;;;;8.63;6.15;;;;;;;11.72;97.33;98036.99;1788380;78;21028;-89
2022/09/20 10:14:43;;;;;;;19.75;12.43;;;;;;;11.40;99.04;98034.84;1804082;79;21246;-89
2022/09/20 10:17:39;;;;;;;11.90;7.58;;;;;;;11.32;99.69;98032.73;1784895;79;21111;-90
2022/09/20 10:20:32;;;;;;;8.28;6.70;;;;;;;11.34;99.96;98036.77;1779681;79;21103;-85
2022/09/20 10:23:31;;;;;;;11.12;7.60;;;;;;;11.23;99.96;98033.89;1784542;79;21131;-85
2022/09/20 10:26:37;;;;;;;11.57;7.92;;;;;;;11.10;100.00;98038.58;1792450;79;20995;-85
2022/09/20 10:29:18;;;;;;;13.15;7.42;;;;;;;11.29;100.00;98036.28;1779367;79;21398;-86
2022/09/20 10:32:09;;;;;;;10.15;8.15;;;;;;;11.77;100.00;98035.57;1783389;79;21417;-85
2022/09/20 10:34:49;;;;;;;9.95;7.25;;;;;;;12.12;100.00;98033.86;1783021;78;21423;-89
2022/09/20 10:37:39;;;;;;;12.82;6.75;;;;;;;12.27;97.07;98035.59;1780861;79;21138;-89
2022/09/20 10:43:14;;;;;;;15.05;9.75;;;;;;;12.47;97.06;98033.72;1725600;79;21105;-89
2022/09/20 10:46:06;;;;;;;7.97;5.90;;;;;;;12.51;96.95;98034.22;1786026;79;21051;-85
2022/09/20 10:48:51;;;;;;;10.65;8.23;;;;;;;12.56;94.19;98039.59;1779020;79;21004;-84
2022/09/20 10:51:46;;;;;;;6.35;5.50;;;;;;;12.62;92.80;98037.05;1764138;79;21119;-86
2022/09/20 10:54:32;;;;;;;6.75;4.92;;;;;;;12.85;93.70;98034.02;1787241;79;21583;-85
2022/09/20 10:57:37;;;;;;;5.70;5.10;;;;;;;13.00;92.69;98028.92;1794531;79;21123;-85
2022/09/20 11:00:23;;;;;;;6.35;4.95;;;;;;;12.98;92.21;98034.63;1791522;79;21012;-89
2022/09/20 11:03:22;;;;;;;5.50;4.35;;;;;;;13.24;93.94;98031.03;1781130;79;21098;-87
2022/09/20 11:06:18;;;;;;;6.60;4.75;;;;;;;13.26;92.99;98038.34;1787501;79;21457;-85
2022/09/20 11:08:44;;;;;;;7.67;4.37;;;;;;;13.10;89.87;98034.76;1785026;79;21589;-89
2022/09/20 11:11:39;;;;;;;6.33;4.15;;;;;;;13.43;92.39;98038.34;1785635;79;21016;-85
2022/09/20 11:14:12;;;;;;;6.10;4.28;;;;;;;13.70;92.49;98032.97;1782957;79;20975;-89
2022/09/20 11:16:49;;;;;;;7.30;4.80;;;;;;;13.76;89.80;98021.45;1790304;78;22221;-88
2022/09/20 11:20:02;;;;;;;6.20;4.20;;;;;;;13.42;89.02;98029.94;1783700;79;21621;-85
2022/09/20 11:22:41;;;;;;;7.65;4.62;;;;;;;13.35;90.58;98029.50;1787075;79;20995;-88
2022/09/20 11:25:20;;;;;;;5.10;3.60;;;;;;;12.90;88.48;98027.69;1780370;79;21043;-89
2022/09/20 11:27:54;;;;;;;9.00;6.15;;;;;;;12.76;87.72;98031.71;1749508;79;21059;-88
2022/09/20 11:30:22;;;;;;;5.30;3.75;;;;;;;12.73;88.58;98036.91;1785683;79;21103;-85
2022/09/20 11:32:58;;;;;;;5.15;4.05;;;;;;;12.69;88.86;98037.50;1793236;79;22608;-88
2022/09/20 11:35:38;;;;;;;6.03;4.10;;;;;;;12.63;89.40;98036.50;1792622;79;21380;-89
2022/09/20 11:38:20;;;;;;;4.65;4.17;;;;;;;12.61;89.43;98034.63;1785163;79;21073;-85
2022/09/20 11:41:05;;;;;;;4.72;4.33;;;;;;;12.61;88.17;98036.80;1776822;79;21460;-86
2022/09/20 11:43:31;;;;;;;5.70;4.08;;;;;;;12.52;88.28;98032.30;1780161;79;21410;-86
2022/09/20 11:46:01;;;;;;;8.28;4.55;;;;;;;12.38;87.91;98031.64;1783941;77;21377;-86
2022/09/20 11:48:32;;;;;;;5.40;4.17;;;;;;;12.22;88.45;98027.52;1754319;79;21448;-85
2022/09/20 11:51:15;;;;;;;5.25;4.67;;;;;;;12.35;90.05;98030.88;1784250;78;21267;-88
2022/09/20 11:54:21;;;;;;;5.17;4.47;;;;;;;12.62;89.03;98030.81;1789759;79;21206;-88
2022/09/20 11:56:51;;;;;;;14.78;4.92;;;;;;;12.86;87.00;98040.27;1746642;79;21321;-86
2022/09/20 11:59:36;;;;;;;4.17;3.30;;;;;;;12.97;87.70;98034.37;1795709;79;20989;-89
2022/09/20 12:02:07;;;;;;;2.87;2.05;;;;;;;12.81;86.63;98059.36;1781374;78;21471;-86
2022/09/20 12:04:33;;;;;;;3.70;3.22;;;;;;;12.56;87.66;98063.22;1784660;79;21393;-89
2022/09/20 12:07:18;;;;;;;7.65;3.45;;;;;;;12.18;89.23;98062.33;1790398;79;21151;-88
2022/09/20 12:09:52;;;;;;;9.53;5.40;;;;;;;12.07;89.95;98052.95;1780524;79;21020;-89
2022/09/20 12:12:40;;;;;;;11.95;6.08;;;;;;;12.19;90.07;98057.97;1789856;79;21117;-87
2022/09/20 12:15:34;;;;;;;21.35;10.53;;;;;;;12.18;90.35;98063.69;1799829;79;21117;-89
2022/09/20 12:18:05;;;;;;;3.47;2.42;;;;;;;12.03;90.11;98066.83;1755305;79;21185;-86
2022/09/20 12:20:37;;;;;;;2.67;1.80;;;;;;;11.79;89.69;98066.78;1798470;78;21130;-85
2022/09/20 12:23:44;;;;;;;2.33;1.77;;;;;;;11.51;90.35;98060.23;1784691;79;21037;-85
2022/09/20 12:26:27;;;;;;;3.27;2.22;;;;;;;11.24;90.39;98062.63;1790460;79;40140;-88
2022/09/20 12:28:59;;;;;;;3.42;2.50;;;;;;;11.14;91.69;98059.99;1800696;79;21531;-85
2022/09/20 12:31:37;;;;;;;3.22;2.60;;;;;;;11.03;92.16;98062.52;1791915;79;21059;-85
2022/09/20 12:34:21;;;;;;;5.15;3.33;;;;;;;10.97;93.04;98061.73;1800356;78;20957;-88
2022/09/20 12:36:58;;;;;;;3.55;2.58;;;;;;;10.97;92.97;98057.12;1785862;79;21351;-89
2022/09/20 12:39:26;;;;;;;3.22;2.37;;;;;;;10.94;93.92;98060.95;1791809;79;21061;-88